Hechuan, China
Current Conditions -  °F | °C
As of 10:00 PM on Thursday 27 Nov 2014 (Local Time) from ZUCK Reporting Station
Clear Clear  
Wind Chill: 55°   Ceiling: Unl
Heat Index: 55°   Visibility: 4mi
Dew Point: 50°   Wind: 11mph
Humidity: 82%   Direction: 360°N
Pressure: 30.03"   Gusts: NA
Location:  30.12°N, 106.25°E
Report Text: ZUCK 271400Z 36005MPS 6000 NSC 13/10 Q1017 NOSIG
Loading
Personal Weather Stations






























Interactive Weather Map New forecast layout! Learn more

10-Day Weather Forecast

Advertisements
Track Severe Weather on mobile